Time;durP1;ratioP1;P1;durP2;ratioP2;P2;SDS_P1;SDS_P2;PMS_P1;PMS_P2;Temp;Humidity;BMP_temperature;BMP_pressure;BME280_temperature;BME280_humidity;BME280_pressure;Samples;Min_cycle;Max_cycle;Signal;HPM_P1;HPM_P2
2022/05/24 00:01:14;;;;;;;2.80;2.13;;;;;;;;;;4928000;29;20476;-74
2022/05/24 00:03:41;;;;;;;3.00;2.00;;;;;;;;;;4926186;29;20524;-74
2022/05/24 00:06:07;;;;;;;3.63;2.43;;;;;;;;;;4912381;29;21041;-74
2022/05/24 00:08:36;;;;;;;2.00;1.70;;;;;;;;;;4914212;29;20445;-74
2022/05/24 00:11:02;;;;;;;2.77;2.17;;;;;;;;;;4913178;29;20437;-74
2022/05/24 00:13:29;;;;;;;1.60;1.20;;;;;;;;;;4919873;29;20572;-75
2022/05/24 00:15:56;;;;;;;1.60;1.20;;;;;;;;;;4931936;29;20830;-75
2022/05/24 00:18:23;;;;;;;1.67;1.47;;;;;;;;;;4914481;29;20453;-74
2022/05/24 00:20:51;;;;;;;2.33;1.10;;;;;;;;;;4913107;29;20465;-74
2022/05/24 00:23:18;;;;;;;1.30;1.00;;;;;;;;;;4912278;29;20929;-74
2022/05/24 00:25:47;;;;;;;1.20;1.00;;;;;;;;;;4913531;29;20441;-76
2022/05/24 00:28:14;;;;;;;1.30;0.90;;;;;;;;;;4910370;29;20533;-75
2022/05/24 00:30:41;;;;;;;1.97;1.00;;;;;;;;;;4898900;29;20940;-76
2022/05/24 00:33:08;;;;;;;1.30;0.90;;;;;;;;;;4923820;29;20544;-74
2022/05/24 00:35:34;;;;;;;1.73;0.90;;;;;;;;;;4919262;29;21007;-76
2022/05/24 00:38:01;;;;;;;1.20;0.87;;;;;;;;;;4917158;29;20441;-76
2022/05/24 00:40:32;;;;;;;1.40;0.97;;;;;;;;;;4920149;29;20476;-76
2022/05/24 00:43:01;;;;;;;5.30;1.17;;;;;;;;;;4918083;29;20530;-76
2022/05/24 00:45:30;;;;;;;1.13;0.70;;;;;;;;;;4917391;29;20555;-76
2022/05/24 00:48:01;;;;;;;1.20;0.90;;;;;;;;;;4932105;29;20509;-75
2022/05/24 00:50:31;;;;;;;1.23;0.90;;;;;;;;;;4916248;29;20441;-77
2022/05/24 00:53:00;;;;;;;1.10;0.90;;;;;;;;;;4919215;29;20453;-76
2022/05/24 00:55:27;;;;;;;2.23;0.93;;;;;;;;;;4917480;29;20543;-76
2022/05/24 00:57:58;;;;;;;1.83;0.90;;;;;;;;;;4916436;29;20940;-76
2022/05/24 01:00:26;;;;;;;2.50;0.90;;;;;;;;;;4929286;29;20590;-76
2022/05/24 01:02:53;;;;;;;1.83;0.80;;;;;;;;;;4922539;29;20544;-76
2022/05/24 01:05:20;;;;;;;1.20;1.00;;;;;;;;;;4935486;29;20483;-76
2022/05/24 01:07:47;;;;;;;1.00;0.77;;;;;;;;;;4918858;29;20913;-76
2022/05/24 01:10:16;;;;;;;1.27;0.80;;;;;;;;;;4935057;29;20463;-76
2022/05/24 01:12:45;;;;;;;1.13;0.93;;;;;;;;;;4936102;29;20452;-76
2022/05/24 01:15:14;;;;;;;1.23;1.00;;;;;;;;;;4919994;29;20523;-76
2022/05/24 01:17:42;;;;;;;1.20;0.80;;;;;;;;;;4919638;29;20555;-76
2022/05/24 01:20:10;;;;;;;1.50;0.90;;;;;;;;;;4953363;29;20533;-76
2022/05/24 01:22:54;;;;;;;1.20;0.90;;;;;;;;;;4918632;29;20458;-77
2022/05/24 01:25:24;;;;;;;1.10;0.90;;;;;;;;;;4919178;29;20463;-76
2022/05/24 01:27:52;;;;;;;1.37;0.90;;;;;;;;;;4919194;29;21042;-76
2022/05/24 01:30:19;;;;;;;1.83;1.00;;;;;;;;;;4937863;29;20453;-76
2022/05/24 01:38:15;;;;;;;1.53;1.10;;;;;;;;;;4930781;29;20946;-75
2022/05/24 01:40:42;;;;;;;1.17;0.90;;;;;;;;;;4946532;29;20476;-76
2022/05/24 01:43:10;;;;;;;1.10;1.00;;;;;;;;;;4938934;29;20745;-76
2022/05/24 01:45:43;;;;;;;1.30;0.90;;;;;;;;;;4937192;29;20564;-76
2022/05/24 01:48:11;;;;;;;1.60;1.20;;;;;;;;;;4936294;29;20460;-75
2022/05/24 01:50:38;;;;;;;1.30;1.10;;;;;;;;;;4936877;29;20478;-74
2022/05/24 01:53:08;;;;;;;1.73;1.10;;;;;;;;;;4938833;29;20456;-75
2022/05/24 01:55:37;;;;;;;1.20;1.00;;;;;;;;;;4935614;29;20468;-74
2022/05/24 01:58:07;;;;;;;1.23;1.10;;;;;;;;;;4918388;29;20470;-75
2022/05/24 02:00:35;;;;;;;1.27;1.03;;;;;;;;;;4918749;29;20511;-74
2022/05/24 02:03:01;;;;;;;2.47;1.00;;;;;;;;;;4941679;29;20441;-74
2022/05/24 02:05:30;;;;;;;1.27;1.13;;;;;;;;;;4920775;29;20476;-75
2022/05/24 02:07:57;;;;;;;2.47;1.40;;;;;;;;;;4918834;29;20452;-75
2022/05/24 02:10:23;;;;;;;1.70;1.13;;;;;;;;;;4938406;29;20455;-75
2022/05/24 02:12:52;;;;;;;1.50;1.10;;;;;;;;;;4935780;29;21170;-75
2022/05/24 02:15:22;;;;;;;1.30;1.00;;;;;;;;;;4935597;29;20456;-75
2022/05/24 02:17:52;;;;;;;1.73;1.30;;;;;;;;;;4935287;29;20421;-75
2022/05/24 02:20:20;;;;;;;1.43;1.10;;;;;;;;;;4934616;29;20459;-75
2022/05/24 02:22:49;;;;;;;1.27;1.03;;;;;;;;;;4939059;29;20448;-74
2022/05/24 02:25:17;;;;;;;1.57;1.37;;;;;;;;;;4935742;29;20491;-75
2022/05/24 02:27:45;;;;;;;1.47;1.30;;;;;;;;;;4935334;29;20462;-75
2022/05/24 02:30:12;;;;;;;4.10;1.70;;;;;;;;;;4945574;29;20515;-74
2022/05/24 02:32:39;;;;;;;1.37;1.10;;;;;;;;;;4923164;29;20867;-75
2022/05/24 02:35:07;;;;;;;1.60;1.00;;;;;;;;;;4918130;29;20443;-75
2022/05/24 02:37:36;;;;;;;1.30;1.10;;;;;;;;;;4898791;29;20984;-75
2022/05/24 02:42:42;;;;;;;1.40;1.20;;;;;;;;;;4924029;29;20491;-75
2022/05/24 02:45:09;;;;;;;1.30;1.10;;;;;;;;;;4934843;29;20555;-75
2022/05/24 02:47:36;;;;;;;1.23;1.13;;;;;;;;;;4898737;29;20449;-75
2022/05/24 02:50:03;;;;;;;1.60;1.13;;;;;;;;;;4924981;29;20464;-75
2022/05/24 02:52:31;;;;;;;1.80;1.40;;;;;;;;;;4934699;29;20543;-75
2022/05/24 02:54:58;;;;;;;1.50;1.30;;;;;;;;;;4920866;29;20456;-75
2022/05/24 02:57:24;;;;;;;1.50;1.40;;;;;;;;;;4934121;29;20491;-75
2022/05/24 02:59:51;;;;;;;1.60;1.33;;;;;;;;;;4944735;29;20459;-74
2022/05/24 03:02:17;;;;;;;2.47;1.30;;;;;;;;;;4933379;29;20475;-75
2022/05/24 03:04:44;;;;;;;3.50;1.07;;;;;;;;;;4921523;29;20487;-75
2022/05/24 03:09:56;;;;;;;1.40;1.30;;;;;;;;;;4914654;29;20805;-75
2022/05/24 03:15:07;;;;;;;2.87;1.40;;;;;;;;;;4917761;29;20443;-75
2022/05/24 03:17:35;;;;;;;2.37;1.60;;;;;;;;;;4937946;29;20455;-75
2022/05/24 03:20:02;;;;;;;1.20;1.00;;;;;;;;;;4953598;29;20922;-75
2022/05/24 03:22:28;;;;;;;2.13;1.20;;;;;;;;;;4906572;29;20465;-75
2022/05/24 03:24:56;;;;;;;1.60;1.27;;;;;;;;;;4922180;29;20456;-75
2022/05/24 03:27:22;;;;;;;1.87;1.30;;;;;;;;;;4933580;29;20432;-75
2022/05/24 03:29:49;;;;;;;1.70;1.30;;;;;;;;;;4937351;29;20551;-75
2022/05/24 03:32:17;;;;;;;1.50;1.30;;;;;;;;;;4934365;29;20460;-75
2022/05/24 03:34:43;;;;;;;1.50;1.03;;;;;;;;;;4900602;29;20853;-75
2022/05/24 03:37:10;;;;;;;2.37;1.43;;;;;;;;;;4944548;29;20461;-75
2022/05/24 03:39:37;;;;;;;3.07;1.10;;;;;;;;;;4952816;29;20451;-75
2022/05/24 03:42:06;;;;;;;1.73;1.40;;;;;;;;;;4948078;29;20472;-75
2022/05/24 03:44:32;;;;;;;2.03;1.27;;;;;;;;;;4934056;29;20476;-75
2022/05/24 03:46:59;;;;;;;1.40;1.30;;;;;;;;;;4938595;29;20451;-75
2022/05/24 03:49:25;;;;;;;2.40;1.10;;;;;;;;;;4935815;29;20454;-75
2022/05/24 03:51:52;;;;;;;1.40;1.30;;;;;;;;;;4934956;29;20436;-75
2022/05/24 03:54:19;;;;;;;2.00;1.30;;;;;;;;;;4934377;29;20874;-75
2022/05/24 03:59:29;;;;;;;1.13;1.03;;;;;;;;;;4916024;29;20444;-74
2022/05/24 04:01:56;;;;;;;1.30;1.00;;;;;;;;;;4922077;29;20531;-75
2022/05/24 04:04:22;;;;;;;1.20;1.10;;;;;;;;;;4919455;29;20484;-75
2022/05/24 04:06:50;;;;;;;1.30;1.10;;;;;;;;;;4934249;29;20971;-75
2022/05/24 04:09:17;;;;;;;1.77;1.13;;;;;;;;;;4938315;29;20774;-75
2022/05/24 04:11:45;;;;;;;1.27;1.07;;;;;;;;;;4914535;29;20528;-75
2022/05/24 04:14:12;;;;;;;1.87;1.07;;;;;;;;;;4902855;29;20463;-75
2022/05/24 04:16:40;;;;;;;2.50;1.67;;;;;;;;;;4952040;29;20444;-75
2022/05/24 04:19:06;;;;;;;1.40;1.13;;;;;;;;;;4922408;29;20883;-75
2022/05/24 04:21:33;;;;;;;1.60;1.43;;;;;;;;;;4939919;29;20586;-75
2022/05/24 04:23:59;;;;;;;1.50;1.40;;;;;;;;;;4921514;29;20460;-75
2022/05/24 04:26:26;;;;;;;1.30;1.10;;;;;;;;;;4938282;29;20458;-74
2022/05/24 04:28:52;;;;;;;1.30;0.97;;;;;;;;;;4959110;28;20434;-75
2022/05/24 04:31:19;;;;;;;2.70;0.90;;;;;;;;;;4952990;29;20975;-75
2022/05/24 04:33:47;;;;;;;1.90;1.20;;;;;;;;;;4941503;29;20479;-74
2022/05/24 04:36:14;;;;;;;1.40;1.00;;;;;;;;;;4939779;29;20480;-75
2022/05/24 04:38:40;;;;;;;1.40;1.20;;;;;;;;;;4939235;29;20538;-74
2022/05/24 04:43:51;;;;;;;1.47;1.17;;;;;;;;;;4918789;29;20924;-74
2022/05/24 04:46:17;;;;;;;1.60;1.30;;;;;;;;;;4959197;29;20514;-74
2022/05/24 04:48:43;;;;;;;3.10;1.50;;;;;;;;;;4959077;29;20473;-74
2022/05/24 04:51:12;;;;;;;2.10;1.83;;;;;;;;;;4941953;29;20806;-74
2022/05/24 04:53:38;;;;;;;2.20;1.57;;;;;;;;;;4945071;29;20961;-74
2022/05/24 04:56:07;;;;;;;1.70;1.47;;;;;;;;;;4939752;29;20444;-74
2022/05/24 04:58:33;;;;;;;2.70;1.43;;;;;;;;;;4939311;29;20436;-74
2022/05/24 05:01:00;;;;;;;2.60;1.47;;;;;;;;;;4922792;29;20451;-74
2022/05/24 05:03:26;;;;;;;1.90;1.40;;;;;;;;;;4943961;29;20472;-74
2022/05/24 05:05:53;;;;;;;3.27;1.93;;;;;;;;;;4910205;29;20563;-74
2022/05/24 05:08:21;;;;;;;2.70;1.63;;;;;;;;;;4938802;29;20535;-74
2022/05/24 05:10:48;;;;;;;2.43;1.70;;;;;;;;;;4921748;29;21220;-74
2022/05/24 05:13:15;;;;;;;2.03;1.83;;;;;;;;;;4923331;29;20874;-74
2022/05/24 05:15:42;;;;;;;2.03;1.43;;;;;;;;;;4938119;29;20448;-74
2022/05/24 05:18:11;;;;;;;1.90;1.60;;;;;;;;;;4937989;29;20463;-74
2022/05/24 05:20:41;;;;;;;5.43;1.77;;;;;;;;;;4931519;29;20472;-74
2022/05/24 05:23:09;;;;;;;1.90;1.80;;;;;;;;;;4919739;29;20472;-73
2022/05/24 05:25:37;;;;;;;2.23;1.87;;;;;;;;;;4919197;29;20547;-75
2022/05/24 05:28:03;;;;;;;4.43;1.80;;;;;;;;;;4941138;29;20785;-74
2022/05/24 05:33:14;;;;;;;2.03;1.83;;;;;;;;;;4917008;29;20976;-73
2022/05/24 05:35:46;;;;;;;2.00;1.80;;;;;;;;;;4915321;29;21140;-76
2022/05/24 05:38:14;;;;;;;4.40;2.37;;;;;;;;;;4934306;29;20514;-74
2022/05/24 05:40:42;;;;;;;2.20;2.00;;;;;;;;;;4924290;29;20467;-74
2022/05/24 05:43:09;;;;;;;2.30;1.87;;;;;;;;;;4927954;29;20480;-74
2022/05/24 05:45:36;;;;;;;2.13;1.93;;;;;;;;;;4917815;29;20467;-74
2022/05/24 05:48:03;;;;;;;4.13;1.80;;;;;;;;;;4947353;29;20459;-75
2022/05/24 05:50:29;;;;;;;2.03;1.83;;;;;;;;;;4955232;29;20463;-76
2022/05/24 05:52:56;;;;;;;5.00;2.50;;;;;;;;;;4944048;29;20874;-74
2022/05/24 05:55:24;;;;;;;2.50;2.27;;;;;;;;;;4926425;29;20460;-76
2022/05/24 05:57:52;;;;;;;2.40;2.10;;;;;;;;;;4920951;29;20491;-74
2022/05/24 06:00:18;;;;;;;2.33;2.13;;;;;;;;;;4936104;29;20458;-76
2022/05/24 06:02:46;;;;;;;4.30;2.40;;;;;;;;;;4935394;29;20567;-74
2022/05/24 06:05:15;;;;;;;2.37;2.17;;;;;;;;;;4932728;29;20495;-74
2022/05/24 06:07:42;;;;;;;3.77;1.93;;;;;;;;;;4946474;29;20523;-75
2022/05/24 06:10:12;;;;;;;2.50;2.10;;;;;;;;;;4919810;29;20444;-75
2022/05/24 06:12:38;;;;;;;4.57;2.20;;;;;;;;;;4918091;29;20436;-74
2022/05/24 06:15:07;;;;;;;2.53;1.73;;;;;;;;;;4923507;29;20874;-76
2022/05/24 06:17:33;;;;;;;3.90;2.30;;;;;;;;;;4919869;29;20471;-75
2022/05/24 06:20:00;;;;;;;1.90;1.70;;;;;;;;;;4934908;29;20452;-75
2022/05/24 06:22:27;;;;;;;2.13;1.90;;;;;;;;;;4918096;29;20471;-76
2022/05/24 06:24:54;;;;;;;2.93;2.43;;;;;;;;;;4923756;29;20492;-76
2022/05/24 06:27:21;;;;;;;2.77;2.03;;;;;;;;;;4935266;29;20429;-76
2022/05/24 06:29:47;;;;;;;2.67;2.27;;;;;;;;;;4934907;29;20464;-76
2022/05/24 06:32:15;;;;;;;3.07;2.10;;;;;;;;;;4916718;29;20491;-76
2022/05/24 06:34:42;;;;;;;4.57;2.17;;;;;;;;;;4939378;29;20466;-76
2022/05/24 06:37:09;;;;;;;1.80;1.70;;;;;;;;;;4918146;29;20551;-76
2022/05/24 06:39:35;;;;;;;1.60;1.50;;;;;;;;;;4918524;29;20452;-76
2022/05/24 06:42:02;;;;;;;3.23;2.10;;;;;;;;;;4936876;29;20478;-75
2022/05/24 06:44:29;;;;;;;3.60;1.70;;;;;;;;;;4941999;29;20456;-75
2022/05/24 06:46:56;;;;;;;2.37;2.00;;;;;;;;;;4934594;29;20467;-75
2022/05/24 06:49:23;;;;;;;2.10;1.67;;;;;;;;;;4917499;29;20562;-75
2022/05/24 06:51:50;;;;;;;2.03;1.77;;;;;;;;;;4912400;29;20535;-75
2022/05/24 06:54:16;;;;;;;2.30;2.03;;;;;;;;;;4944739;29;20463;-75
2022/05/24 06:56:43;;;;;;;2.20;1.70;;;;;;;;;;4949080;29;20491;-75
2022/05/24 07:04:39;;;;;;;3.90;1.80;;;;;;;;;;4924969;29;20822;-75
2022/05/24 07:07:05;;;;;;;1.80;1.60;;;;;;;;;;4934887;29;20471;-76
2022/05/24 07:09:33;;;;;;;3.27;1.60;;;;;;;;;;4934707;29;20547;-75
2022/05/24 07:12:00;;;;;;;1.90;1.43;;;;;;;;;;4934490;29;20470;-75
2022/05/24 07:14:27;;;;;;;3.47;2.40;;;;;;;;;;4946187;29;20463;-75
2022/05/24 07:16:53;;;;;;;4.20;0.93;;;;;;;;;;4930866;29;20951;-75
2022/05/24 07:19:20;;;;;;;2.53;0.73;;;;;;;;;;4931082;29;20459;-75
2022/05/24 07:21:48;;;;;;;3.63;0.80;;;;;;;;;;4953144;29;20442;-75
2022/05/24 07:24:15;;;;;;;1.53;0.53;;;;;;;;;;4916837;29;20570;-74
2022/05/24 07:26:43;;;;;;;1.50;0.50;;;;;;;;;;4933748;29;20477;-75
2022/05/24 07:29:09;;;;;;;2.70;0.60;;;;;;;;;;4914429;29;20576;-75
2022/05/24 07:31:37;;;;;;;1.77;0.70;;;;;;;;;;4933150;29;20518;-74
2022/05/24 07:34:03;;;;;;;2.13;0.60;;;;;;;;;;4922923;29;20970;-74
2022/05/24 07:36:30;;;;;;;1.57;0.67;;;;;;;;;;4952934;29;20432;-76
2022/05/24 07:38:58;;;;;;;6.87;0.57;;;;;;;;;;4920922;29;20445;-75
2022/05/24 07:46:53;;;;;;;1.27;0.70;;;;;;;;;;4943559;29;20443;-75
2022/05/24 07:49:19;;;;;;;1.75;0.80;;;;;;;;;;4937502;29;20542;-77
2022/05/24 07:51:46;;;;;;;1.23;0.70;;;;;;;;;;4916398;29;20552;-76
2022/05/24 07:54:14;;;;;;;1.30;0.80;;;;;;;;;;4911925;29;20447;-75
2022/05/24 07:56:46;;;;;;;3.83;1.07;;;;;;;;;;4924411;29;20471;-75
2022/05/24 07:59:13;;;;;;;1.13;0.60;;;;;;;;;;4913382;29;20471;-75
2022/05/24 08:01:40;;;;;;;5.30;1.07;;;;;;;;;;4902515;29;20463;-75
2022/05/24 08:04:07;;;;;;;2.60;0.70;;;;;;;;;;4938666;29;20850;-75
2022/05/24 08:06:33;;;;;;;1.50;0.80;;;;;;;;;;4932595;29;20546;-75
2022/05/24 08:09:00;;;;;;;2.13;0.73;;;;;;;;;;4934356;29;20531;-75
2022/05/24 08:11:28;;;;;;;1.00;0.60;;;;;;;;;;4917058;29;20448;-75
2022/05/24 08:13:54;;;;;;;1.43;0.57;;;;;;;;;;4933814;29;20425;-75
2022/05/24 08:16:21;;;;;;;2.03;0.77;;;;;;;;;;4922342;29;20463;-75
2022/05/24 08:18:47;;;;;;;0.97;0.50;;;;;;;;;;4926533;29;20475;-75
2022/05/24 08:21:14;;;;;;;2.27;0.80;;;;;;;;;;4916901;29;20557;-76
2022/05/24 08:23:40;;;;;;;2.00;0.70;;;;;;;;;;4933376;29;20464;-75
2022/05/24 08:26:07;;;;;;;1.10;0.60;;;;;;;;;;4925940;29;20470;-75
2022/05/24 08:28:35;;;;;;;1.20;0.70;;;;;;;;;;4904415;29;20515;-75
2022/05/24 08:31:01;;;;;;;0.90;0.60;;;;;;;;;;4914222;29;20458;-75
2022/05/24 08:33:29;;;;;;;1.67;0.93;;;;;;;;;;4918757;29;20444;-75
2022/05/24 08:35:56;;;;;;;1.23;0.50;;;;;;;;;;4910759;29;20936;-75
2022/05/24 08:38:23;;;;;;;1.23;0.70;;;;;;;;;;4913187;29;20974;-75
2022/05/24 08:40:50;;;;;;;1.83;0.60;;;;;;;;;;4897548;29;20504;-75
2022/05/24 08:43:35;;;;;;;2.60;0.90;;;;;;;;;;4922946;29;20988;-75
2022/05/24 08:48:59;;;;;;;1.13;0.67;;;;;;;;;;4913881;29;20437;-75
2022/05/24 08:51:28;;;;;;;1.00;0.60;;;;;;;;;;4897359;29;20425;-75
2022/05/24 08:53:56;;;;;;;1.23;0.67;;;;;;;;;;4928944;29;20475;-75
2022/05/24 08:56:24;;;;;;;1.43;0.90;;;;;;;;;;4918529;29;20962;-75
2022/05/24 08:58:52;;;;;;;1.17;0.60;;;;;;;;;;4944369;29;20505;-75
2022/05/24 09:01:22;;;;;;;1.20;0.60;;;;;;;;;;4935014;29;20447;-75
2022/05/24 09:03:48;;;;;;;1.70;0.83;;;;;;;;;;4933795;29;20488;-75
2022/05/24 09:06:17;;;;;;;1.30;0.73;;;;;;;;;;4918436;29;20436;-75
2022/05/24 09:08:48;;;;;;;1.80;0.93;;;;;;;;;;4936046;29;20456;-75
2022/05/24 09:11:19;;;;;;;1.30;0.60;;;;;;;;;;4936055;29;20539;-75
2022/05/24 09:14:04;;;;;;;1.37;0.70;;;;;;;;;;4944267;29;20440;-75
2022/05/24 09:16:37;;;;;;;1.60;0.90;;;;;;;;;;4954211;29;20545;-75
2022/05/24 09:19:05;;;;;;;1.53;0.60;;;;;;;;;;4933866;29;20482;-75
2022/05/24 09:21:35;;;;;;;1.00;0.50;;;;;;;;;;4938558;29;20462;-75
2022/05/24 09:24:04;;;;;;;1.50;0.70;;;;;;;;;;4918943;29;20472;-75
2022/05/24 09:26:34;;;;;;;1.23;0.67;;;;;;;;;;4937628;29;20599;-75
2022/05/24 09:29:09;;;;;;;1.73;0.60;;;;;;;;;;4919319;29;20452;-75
2022/05/24 09:31:40;;;;;;;2.10;0.80;;;;;;;;;;4940758;29;20527;-75
2022/05/24 09:34:22;;;;;;;1.50;1.40;;;;;;;;;;4915507;29;20448;-75
2022/05/24 09:36:53;;;;;;;1.70;0.63;;;;;;;;;;4927021;29;20547;-75
2022/05/24 09:39:27;;;;;;;1.10;0.70;;;;;;;;;;4915963;29;20775;-75
2022/05/24 09:41:57;;;;;;;0.83;0.43;;;;;;;;;;4917299;29;20444;-75
2022/05/24 09:44:28;;;;;;;1.00;0.70;;;;;;;;;;4931814;29;20541;-75
2022/05/24 09:46:58;;;;;;;1.63;0.60;;;;;;;;;;4936371;29;20459;-74
2022/05/24 09:49:27;;;;;;;0.80;0.40;;;;;;;;;;4934751;29;20551;-74
2022/05/24 09:51:56;;;;;;;1.43;0.70;;;;;;;;;;4936457;29;20476;-75
2022/05/24 09:54:24;;;;;;;2.47;0.80;;;;;;;;;;4935956;29;20516;-75
2022/05/24 09:57:02;;;;;;;0.93;0.63;;;;;;;;;;4921972;29;20463;-75
2022/05/24 09:59:29;;;;;;;1.67;0.60;;;;;;;;;;4922438;29;20519;-75
2022/05/24 10:01:56;;;;;;;2.50;0.60;;;;;;;;;;4935744;29;20484;-75
2022/05/24 10:04:27;;;;;;;0.97;0.70;;;;;;;;;;4914800;29;20489;-75
2022/05/24 10:06:56;;;;;;;1.20;0.60;;;;;;;;;;4925329;29;20456;-74
2022/05/24 10:09:38;;;;;;;1.90;0.70;;;;;;;;;;4934870;29;20840;-75
2022/05/24 10:12:06;;;;;;;1.20;0.80;;;;;;;;;;4926554;29;20465;-75
2022/05/24 10:14:35;;;;;;;1.20;0.80;;;;;;;;;;4915457;29;20575;-74
2022/05/24 10:17:05;;;;;;;1.23;0.73;;;;;;;;;;4916338;29;20465;-75
2022/05/24 10:19:40;;;;;;;1.10;0.60;;;;;;;;;;4915907;29;20508;-75
2022/05/24 10:22:12;;;;;;;0.90;0.60;;;;;;;;;;4916049;29;20437;-75
2022/05/24 10:24:45;;;;;;;1.20;0.90;;;;;;;;;;4919053;29;20815;-75
2022/05/24 10:27:16;;;;;;;1.10;0.83;;;;;;;;;;4930850;29;20464;-75
2022/05/24 10:29:49;;;;;;;1.10;0.60;;;;;;;;;;4924437;29;20457;-75
2022/05/24 10:38:20;;;;;;;1.20;0.70;;;;;;;;;;4935162;29;20523;-75
2022/05/24 10:40:51;;;;;;;1.00;0.70;;;;;;;;;;4933616;29;20515;-75
2022/05/24 10:43:23;;;;;;;1.57;0.63;;;;;;;;;;4928993;29;20469;-74
2022/05/24 10:45:51;;;;;;;1.77;0.80;;;;;;;;;;4916974;29;20496;-75
2022/05/24 10:48:21;;;;;;;1.53;0.67;;;;;;;;;;4926405;29;20780;-75
2022/05/24 10:50:52;;;;;;;1.27;0.90;;;;;;;;;;4917987;29;20579;-75
2022/05/24 10:53:24;;;;;;;1.10;0.80;;;;;;;;;;4921447;29;20482;-75
2022/05/24 10:55:57;;;;;;;5.83;1.37;;;;;;;;;;4918378;29;20481;-75
2022/05/24 10:58:25;;;;;;;1.10;0.70;;;;;;;;;;4914257;29;20445;-75
2022/05/24 11:00:53;;;;;;;1.20;0.70;;;;;;;;;;4914822;29;20564;-75
2022/05/24 11:03:24;;;;;;;2.40;0.70;;;;;;;;;;4914893;29;20485;-75
2022/05/24 11:05:54;;;;;;;1.63;0.87;;;;;;;;;;4952601;29;20515;-75
2022/05/24 11:08:30;;;;;;;2.90;1.50;;;;;;;;;;4921113;29;20452;-75
2022/05/24 11:10:58;;;;;;;1.77;0.70;;;;;;;;;;4934566;29;20491;-75
2022/05/24 11:13:31;;;;;;;1.40;1.00;;;;;;;;;;4931184;29;20452;-75
2022/05/24 11:16:00;;;;;;;1.20;0.73;;;;;;;;;;4936483;29;20876;-75
2022/05/24 11:18:27;;;;;;;1.17;0.80;;;;;;;;;;4935931;29;20432;-75
2022/05/24 11:20:57;;;;;;;1.00;0.60;;;;;;;;;;4931051;29;20484;-74
2022/05/24 11:23:27;;;;;;;1.40;0.90;;;;;;;;;;4923642;29;20944;-75
2022/05/24 11:25:56;;;;;;;1.50;1.00;;;;;;;;;;4931801;29;20438;-75
2022/05/24 11:28:24;;;;;;;1.10;0.50;;;;;;;;;;4927473;29;20853;-75
2022/05/24 11:30:51;;;;;;;1.10;0.90;;;;;;;;;;4924355;29;20496;-76
2022/05/24 11:33:25;;;;;;;1.20;0.73;;;;;;;;;;4902164;29;20441;-75
2022/05/24 11:35:52;;;;;;;4.13;0.83;;;;;;;;;;4906178;29;20472;-75
2022/05/24 11:38:35;;;;;;;1.93;1.07;;;;;;;;;;4909151;29;20441;-75
2022/05/24 11:41:07;;;;;;;1.73;0.93;;;;;;;;;;4917823;29;20489;-75
2022/05/24 11:43:52;;;;;;;1.50;0.80;;;;;;;;;;4919119;29;20812;-74
2022/05/24 11:46:37;;;;;;;1.10;0.93;;;;;;;;;;4934131;29;20799;-75
2022/05/24 11:49:10;;;;;;;1.43;0.70;;;;;;;;;;4920733;29;20453;-75
2022/05/24 11:51:42;;;;;;;1.23;0.80;;;;;;;;;;4948127;29;20547;-75
2022/05/24 11:54:23;;;;;;;1.13;0.90;;;;;;;;;;4916331;29;20447;-75
2022/05/24 11:56:54;;;;;;;1.00;0.80;;;;;;;;;;4914726;29;20614;-75
2022/05/24 11:59:35;;;;;;;4.67;1.23;;;;;;;;;;4932113;29;20467;-75
2022/05/24 12:02:26;;;;;;;1.10;0.83;;;;;;;;;;4922279;29;20520;-75
2022/05/24 12:07:56;;;;;;;1.23;0.90;;;;;;;;;;4921300;29;20432;-75
2022/05/24 12:10:41;;;;;;;1.00;0.80;;;;;;;;;;4920848;29;20463;-75
2022/05/24 12:13:18;;;;;;;4.50;1.40;;;;;;;;;;4928890;29;20456;-75
2022/05/24 12:15:48;;;;;;;2.07;0.97;;;;;;;;;;4916556;29;20459;-75
2022/05/24 12:18:16;;;;;;;1.03;0.83;;;;;;;;;;4935245;29;20835;-75
2022/05/24 12:21:06;;;;;;;1.50;0.73;;;;;;;;;;4922546;29;20977;-75
2022/05/24 12:23:41;;;;;;;1.10;0.80;;;;;;;;;;4923637;29;20460;-75
2022/05/24 12:26:08;;;;;;;1.30;0.80;;;;;;;;;;4940885;29;20494;-75
2022/05/24 12:28:44;;;;;;;1.17;0.73;;;;;;;;;;4926268;29;20460;-75
2022/05/24 12:31:17;;;;;;;2.20;1.10;;;;;;;;;;4937415;29;20983;-75
2022/05/24 12:33:46;;;;;;;1.43;0.90;;;;;;;;;;4940214;29;20436;-75
2022/05/24 12:36:31;;;;;;;1.23;0.90;;;;;;;;;;4919872;29;20494;-75
2022/05/24 12:38:59;;;;;;;1.30;1.00;;;;;;;;;;4919398;29;20549;-75
2022/05/24 12:41:32;;;;;;;1.20;0.80;;;;;;;;;;4954565;29;20455;-75
2022/05/24 12:44:02;;;;;;;1.20;0.70;;;;;;;;;;4926253;29;20467;-75
2022/05/24 12:46:30;;;;;;;2.73;1.03;;;;;;;;;;4942372;29;20933;-75
2022/05/24 12:48:58;;;;;;;1.23;1.00;;;;;;;;;;4937265;29;20782;-75
2022/05/24 12:51:25;;;;;;;1.20;0.80;;;;;;;;;;4919082;29;20874;-75
2022/05/24 12:53:51;;;;;;;1.20;0.90;;;;;;;;;;4939582;29;20447;-75
2022/05/24 12:56:20;;;;;;;3.00;0.83;;;;;;;;;;4942734;29;20566;-75
2022/05/24 12:58:49;;;;;;;1.03;0.90;;;;;;;;;;4935395;29;20486;-75
2022/05/24 13:01:18;;;;;;;1.60;0.80;;;;;;;;;;4934646;29;20507;-75
2022/05/24 13:03:46;;;;;;;1.67;0.90;;;;;;;;;;4919897;29;21017;-74
2022/05/24 13:06:23;;;;;;;1.13;0.77;;;;;;;;;;4921296;29;20447;-75
2022/05/24 13:09:04;;;;;;;1.50;0.70;;;;;;;;;;4936716;29;20944;-75
2022/05/24 13:11:31;;;;;;;4.37;1.10;;;;;;;;;;4947458;29;20462;-75
2022/05/24 13:13:58;;;;;;;1.23;0.70;;;;;;;;;;4933243;29;20512;-75
2022/05/24 13:16:26;;;;;;;1.00;0.70;;;;;;;;;;4938479;29;20585;-75
2022/05/24 13:18:55;;;;;;;1.30;0.80;;;;;;;;;;4942296;29;20455;-75
2022/05/24 13:21:27;;;;;;;1.23;0.90;;;;;;;;;;4918684;29;20448;-75
2022/05/24 13:24:07;;;;;;;1.43;0.80;;;;;;;;;;4903497;29;20472;-75
2022/05/24 13:26:33;;;;;;;0.90;0.80;;;;;;;;;;4917113;29;20542;-75
2022/05/24 13:29:19;;;;;;;3.57;1.10;;;;;;;;;;4919676;29;20785;-75
2022/05/24 13:34:33;;;;;;;1.40;1.10;;;;;;;;;;4932561;29;20449;-75
2022/05/24 13:37:03;;;;;;;1.47;1.10;;;;;;;;;;4931289;29;20463;-75
2022/05/24 13:39:47;;;;;;;1.77;0.90;;;;;;;;;;4921362;29;20485;-75
2022/05/24 13:42:22;;;;;;;1.20;0.90;;;;;;;;;;4923850;29;20458;-75
2022/05/24 13:45:04;;;;;;;1.67;1.17;;;;;;;;;;4941962;29;20962;-75
2022/05/24 13:47:35;;;;;;;1.83;1.00;;;;;;;;;;4919003;29;20940;-75
2022/05/24 13:50:16;;;;;;;1.10;0.87;;;;;;;;;;4920303;29;20428;-75
2022/05/24 13:52:53;;;;;;;4.00;1.10;;;;;;;;;;4935583;29;20460;-75
2022/05/24 13:55:21;;;;;;;1.73;1.07;;;;;;;;;;4908755;29;20467;-75
2022/05/24 13:57:52;;;;;;;1.70;0.97;;;;;;;;;;4937735;29;20457;-75
2022/05/24 14:00:31;;;;;;;1.87;1.00;;;;;;;;;;4932503;29;20813;-75
2022/05/24 14:03:09;;;;;;;1.67;1.20;;;;;;;;;;4915067;29;20460;-75
2022/05/24 14:05:37;;;;;;;1.37;1.00;;;;;;;;;;4917864;29;20963;-75
2022/05/24 14:08:04;;;;;;;1.10;0.87;;;;;;;;;;4916033;29;20464;-75
2022/05/24 14:10:32;;;;;;;1.83;1.10;;;;;;;;;;4933408;29;20451;-75
2022/05/24 14:12:59;;;;;;;1.40;0.83;;;;;;;;;;4922091;29;20452;-75
2022/05/24 14:15:25;;;;;;;2.33;1.27;;;;;;;;;;4916119;29;20459;-75
2022/05/24 14:17:52;;;;;;;1.73;0.97;;;;;;;;;;4934109;29;20451;-75
2022/05/24 14:20:20;;;;;;;1.90;1.00;;;;;;;;;;4914742;29;20523;-75
2022/05/24 14:22:47;;;;;;;1.37;0.97;;;;;;;;;;4928004;29;20461;-75
2022/05/24 14:25:14;;;;;;;1.57;1.17;;;;;;;;;;4909753;29;20472;-75
2022/05/24 14:27:40;;;;;;;1.73;0.90;;;;;;;;;;4933655;29;21763;-75
2022/05/24 14:30:08;;;;;;;2.03;1.10;;;;;;;;;;4922074;29;20451;-75
2022/05/24 14:32:35;;;;;;;1.07;0.77;;;;;;;;;;4929074;29;20460;-75
2022/05/24 14:35:02;;;;;;;1.20;1.03;;;;;;;;;;4920513;29;20551;-75
2022/05/24 14:37:30;;;;;;;1.40;1.00;;;;;;;;;;4935985;29;20464;-75
2022/05/24 14:39:58;;;;;;;1.30;0.90;;;;;;;;;;4920193;29;20480;-74
2022/05/24 14:42:25;;;;;;;2.63;1.03;;;;;;;;;;4917494;29;20464;-75
2022/05/24 14:44:54;;;;;;;1.50;1.13;;;;;;;;;;4916163;29;20465;-75
2022/05/24 14:47:20;;;;;;;1.83;1.10;;;;;;;;;;4916504;29;20457;-75
2022/05/24 14:49:47;;;;;;;2.40;1.50;;;;;;;;;;4916702;29;20504;-75
2022/05/24 14:52:15;;;;;;;2.27;1.47;;;;;;;;;;4910312;29;20468;-75
2022/05/24 14:54:44;;;;;;;2.13;1.23;;;;;;;;;;4932563;29;20437;-75
2022/05/24 14:57:10;;;;;;;3.60;1.50;;;;;;;;;;4915879;29;21000;-76
2022/05/24 14:59:38;;;;;;;2.17;1.20;;;;;;;;;;4903092;29;20441;-75
2022/05/24 15:02:05;;;;;;;3.00;1.37;;;;;;;;;;4933018;29;20488;-75
2022/05/24 15:04:32;;;;;;;3.63;1.07;;;;;;;;;;4941526;29;20579;-75
2022/05/24 15:15:20;;;;;;;1.20;1.10;;;;;;;;;;4918109;29;20456;-75
2022/05/24 15:15:24;;;;;;;4.50;0.80;;;;;;;;;;4927449;29;20443;-75
2022/05/24 15:17:51;;;;;;;1.20;1.00;;;;;;;;;;4923441;29;20459;-75
2022/05/24 15:20:19;;;;;;;1.17;1.00;;;;;;;;;;4934986;29;20935;-75
2022/05/24 15:22:47;;;;;;;3.50;1.20;;;;;;;;;;4914371;29;20455;-75
2022/05/24 15:25:16;;;;;;;1.80;1.33;;;;;;;;;;4932892;29;20827;-75
2022/05/24 15:27:43;;;;;;;2.03;1.20;;;;;;;;;;4931011;29;20550;-75
2022/05/24 15:30:10;;;;;;;2.33;1.57;;;;;;;;;;4924261;29;20486;-75
2022/05/24 15:32:37;;;;;;;2.83;1.20;;;;;;;;;;4943727;29;20453;-75
2022/05/24 15:35:05;;;;;;;2.63;1.37;;;;;;;;;;4916980;29;20447;-75
2022/05/24 15:37:31;;;;;;;1.83;1.20;;;;;;;;;;4915152;29;20535;-75
2022/05/24 15:39:58;;;;;;;3.67;1.60;;;;;;;;;;4916565;29;20890;-75
2022/05/24 15:42:29;;;;;;;1.50;1.10;;;;;;;;;;4932946;29;20460;-75
2022/05/24 15:44:55;;;;;;;1.30;1.20;;;;;;;;;;4933587;29;20467;-75
2022/05/24 15:47:22;;;;;;;2.07;1.17;;;;;;;;;;4934291;29;20444;-75